sensor_id;sensor_type;location;lat;lon;timestamp;pressure;altitude;pressure_sealevel;temperature
75273;BMP280;63869;52.344;16.928;2023-06-10T00:01:18;100736.78;;;21.03
75273;BMP280;63869;52.344;16.928;2023-06-10T00:03:43;100739.50;;;21.03
75273;BMP280;63869;52.344;16.928;2023-06-10T00:06:09;100742.94;;;20.98
75273;BMP280;63869;52.344;16.928;2023-06-10T00:08:34;100741.34;;;20.91
75273;BMP280;63869;52.344;16.928;2023-06-10T00:10:59;100740.25;;;20.78
75273;BMP280;63869;52.344;16.928;2023-06-10T00:13:25;100733.22;;;20.71
75273;BMP280;63869;52.344;16.928;2023-06-10T00:15:50;100744.09;;;20.71
75273;BMP280;63869;52.344;16.928;2023-06-10T00:18:16;100738.47;;;20.75
75273;BMP280;63869;52.344;16.928;2023-06-10T00:20:42;100746.22;;;20.82
75273;BMP280;63869;52.344;16.928;2023-06-10T00:23:07;100738.81;;;20.82
75273;BMP280;63869;52.344;16.928;2023-06-10T00:25:34;100743.28;;;20.85
75273;BMP280;63869;52.344;16.928;2023-06-10T00:27:59;100743.06;;;20.89
75273;BMP280;63869;52.344;16.928;2023-06-10T00:30:25;100748.75;;;20.91
75273;BMP280;63869;52.344;16.928;2023-06-10T00:32:51;100746.75;;;20.86
75273;BMP280;63869;52.344;16.928;2023-06-10T00:35:16;100756.88;;;20.85
75273;BMP280;63869;52.344;16.928;2023-06-10T00:37:42;100746.22;;;20.82
75273;BMP280;63869;52.344;16.928;2023-06-10T00:40:08;100740.44;;;20.74
75273;BMP280;63869;52.344;16.928;2023-06-10T00:42:36;100740.84;;;20.67
75273;BMP280;63869;52.344;16.928;2023-06-10T00:45:01;100743.31;;;20.65
75273;BMP280;63869;52.344;16.928;2023-06-10T00:47:28;100744.94;;;20.57
75273;BMP280;63869;52.344;16.928;2023-06-10T00:49:54;100747.25;;;20.44
75273;BMP280;63869;52.344;16.928;2023-06-10T00:52:22;100753.47;;;20.30
75273;BMP280;63869;52.344;16.928;2023-06-10T00:54:49;100753.50;;;20.15
75273;BMP280;63869;52.344;16.928;2023-06-10T00:57:15;100756.06;;;20.04
75273;BMP280;63869;52.344;16.928;2023-06-10T00:59:43;100748.69;;;19.90
75273;BMP280;63869;52.344;16.928;2023-06-10T01:02:12;100748.22;;;19.76
75273;BMP280;63869;52.344;16.928;2023-06-10T01:04:37;100759.84;;;19.62
75273;BMP280;63869;52.344;16.928;2023-06-10T01:07:14;100757.25;;;19.53
75273;BMP280;63869;52.344;16.928;2023-06-10T01:10:05;100764.97;;;19.46
75273;BMP280;63869;52.344;16.928;2023-06-10T01:12:55;100755.88;;;19.34
75273;BMP280;63869;52.344;16.928;2023-06-10T01:15:22;100762.63;;;19.24
75273;BMP280;63869;52.344;16.928;2023-06-10T01:18:04;100772.13;;;19.19
75273;BMP280;63869;52.344;16.928;2023-06-10T01:20:34;100769.16;;;19.17
75273;BMP280;63869;52.344;16.928;2023-06-10T01:23:00;100768.41;;;19.17
75273;BMP280;63869;52.344;16.928;2023-06-10T01:25:28;100775.91;;;19.22
75273;BMP280;63869;52.344;16.928;2023-06-10T01:28:05;100776.28;;;19.29
75273;BMP280;63869;52.344;16.928;2023-06-10T01:30:37;100779.09;;;19.35
75273;BMP280;63869;52.344;16.928;2023-06-10T01:33:06;100769.09;;;19.41
75273;BMP280;63869;52.344;16.928;2023-06-10T01:35:36;100767.69;;;19.46
75273;BMP280;63869;52.344;16.928;2023-06-10T01:38:02;100780.16;;;19.52
75273;BMP280;63869;52.344;16.928;2023-06-10T01:40:29;100780.06;;;19.61
75273;BMP280;63869;52.344;16.928;2023-06-10T01:42:55;100770.03;;;19.67
75273;BMP280;63869;52.344;16.928;2023-06-10T01:45:21;100777.59;;;19.63
75273;BMP280;63869;52.344;16.928;2023-06-10T01:47:46;100783.78;;;19.64
75273;BMP280;63869;52.344;16.928;2023-06-10T01:50:11;100785.00;;;19.63
75273;BMP280;63869;52.344;16.928;2023-06-10T01:52:37;100777.34;;;19.61
75273;BMP280;63869;52.344;16.928;2023-06-10T01:55:03;100777.31;;;19.47
75273;BMP280;63869;52.344;16.928;2023-06-10T01:57:28;100779.84;;;19.50
75273;BMP280;63869;52.344;16.928;2023-06-10T01:59:55;100779.50;;;19.57
75273;BMP280;63869;52.344;16.928;2023-06-10T02:02:20;100782.69;;;19.56
75273;BMP280;63869;52.344;16.928;2023-06-10T02:04:47;100784.25;;;19.48
75273;BMP280;63869;52.344;16.928;2023-06-10T02:07:12;100780.22;;;19.43
75273;BMP280;63869;52.344;16.928;2023-06-10T02:09:37;100785.09;;;19.39
75273;BMP280;63869;52.344;16.928;2023-06-10T02:12:03;100787.53;;;19.37
75273;BMP280;63869;52.344;16.928;2023-06-10T02:14:29;100789.38;;;19.31
75273;BMP280;63869;52.344;16.928;2023-06-10T02:16:54;100781.69;;;19.29
75273;BMP280;63869;52.344;16.928;2023-06-10T02:19:22;100783.41;;;19.27
75273;BMP280;63869;52.344;16.928;2023-06-10T02:21:47;100786.91;;;19.18
75273;BMP280;63869;52.344;16.928;2023-06-10T02:24:13;100790.19;;;19.08
75273;BMP280;63869;52.344;16.928;2023-06-10T02:26:38;100789.88;;;19.06
75273;BMP280;63869;52.344;16.928;2023-06-10T02:29:03;100795.47;;;19.02
75273;BMP280;63869;52.344;16.928;2023-06-10T02:31:29;100795.88;;;19.10
75273;BMP280;63869;52.344;16.928;2023-06-10T02:33:54;100792.25;;;19.13
75273;BMP280;63869;52.344;16.928;2023-06-10T02:36:21;100788.78;;;19.12
75273;BMP280;63869;52.344;16.928;2023-06-10T02:38:46;100791.59;;;19.18
75273;BMP280;63869;52.344;16.928;2023-06-10T02:41:12;100793.38;;;19.21
75273;BMP280;63869;52.344;16.928;2023-06-10T02:43:37;100797.28;;;19.20
75273;BMP280;63869;52.344;16.928;2023-06-10T02:46:02;100797.75;;;19.18
75273;BMP280;63869;52.344;16.928;2023-06-10T02:48:28;100799.88;;;19.14
75273;BMP280;63869;52.344;16.928;2023-06-10T02:50:53;100797.19;;;19.14
75273;BMP280;63869;52.344;16.928;2023-06-10T02:53:19;100799.63;;;19.12
75273;BMP280;63869;52.344;16.928;2023-06-10T02:55:44;100797.47;;;19.16
75273;BMP280;63869;52.344;16.928;2023-06-10T02:58:10;100803.91;;;19.19
75273;BMP280;63869;52.344;16.928;2023-06-10T03:00:35;100806.84;;;19.30
75273;BMP280;63869;52.344;16.928;2023-06-10T03:03:02;100804.34;;;19.41
75273;BMP280;63869;52.344;16.928;2023-06-10T03:05:29;100809.06;;;19.55
75273;BMP280;63869;52.344;16.928;2023-06-10T03:07:54;100807.44;;;19.63
75273;BMP280;63869;52.344;16.928;2023-06-10T03:10:19;100810.72;;;19.67
75273;BMP280;63869;52.344;16.928;2023-06-10T03:12:45;100806.06;;;19.68
75273;BMP280;63869;52.344;16.928;2023-06-10T03:15:10;100814.84;;;19.63
75273;BMP280;63869;52.344;16.928;2023-06-10T03:17:36;100815.78;;;19.60
75273;BMP280;63869;52.344;16.928;2023-06-10T03:20:02;100809.63;;;19.59
75273;BMP280;63869;52.344;16.928;2023-06-10T03:22:28;100815.09;;;19.50
75273;BMP280;63869;52.344;16.928;2023-06-10T03:24:53;100818.91;;;19.53
75273;BMP280;63869;52.344;16.928;2023-06-10T03:27:20;100821.69;;;19.58
75273;BMP280;63869;52.344;16.928;2023-06-10T03:29:45;100827.69;;;19.62
75273;BMP280;63869;52.344;16.928;2023-06-10T03:32:10;100826.75;;;19.65
75273;BMP280;63869;52.344;16.928;2023-06-10T03:34:36;100824.22;;;19.62
75273;BMP280;63869;52.344;16.928;2023-06-10T03:37:03;100832.63;;;19.64
75273;BMP280;63869;52.344;16.928;2023-06-10T03:39:29;100824.28;;;19.67
75273;BMP280;63869;52.344;16.928;2023-06-10T03:41:55;100831.59;;;19.76
75273;BMP280;63869;52.344;16.928;2023-06-10T03:44:21;100824.75;;;19.80
75273;BMP280;63869;52.344;16.928;2023-06-10T03:46:46;100843.69;;;19.90
75273;BMP280;63869;52.344;16.928;2023-06-10T03:49:12;100839.84;;;19.96
75273;BMP280;63869;52.344;16.928;2023-06-10T03:51:38;100847.22;;;20.10
75273;BMP280;63869;52.344;16.928;2023-06-10T03:54:03;100842.19;;;20.18
75273;BMP280;63869;52.344;16.928;2023-06-10T03:56:28;100853.66;;;20.28
75273;BMP280;63869;52.344;16.928;2023-06-10T03:58:55;100855.06;;;20.38
75273;BMP280;63869;52.344;16.928;2023-06-10T04:01:20;100853.44;;;20.46
75273;BMP280;63869;52.344;16.928;2023-06-10T04:03:47;100860.75;;;20.54
75273;BMP280;63869;52.344;16.928;2023-06-10T04:06:14;100867.03;;;20.60
75273;BMP280;63869;52.344;16.928;2023-06-10T04:08:40;100867.59;;;20.65
75273;BMP280;63869;52.344;16.928;2023-06-10T04:11:05;100863.44;;;20.69
75273;BMP280;63869;52.344;16.928;2023-06-10T04:13:30;100872.16;;;20.73
75273;BMP280;63869;52.344;16.928;2023-06-10T04:15:56;100880.56;;;20.75
75273;BMP280;63869;52.344;16.928;2023-06-10T04:18:21;100875.59;;;20.74
75273;BMP280;63869;52.344;16.928;2023-06-10T04:20:47;100884.59;;;20.80
75273;BMP280;63869;52.344;16.928;2023-06-10T04:23:12;100885.69;;;20.88
75273;BMP280;63869;52.344;16.928;2023-06-10T04:25:38;100888.28;;;20.97
75273;BMP280;63869;52.344;16.928;2023-06-10T04:28:03;100895.75;;;21.02
75273;BMP280;63869;52.344;16.928;2023-06-10T04:30:29;100894.06;;;21.04
75273;BMP280;63869;52.344;16.928;2023-06-10T04:32:56;100903.22;;;21.07
75273;BMP280;63869;52.344;16.928;2023-06-10T04:35:21;100901.59;;;21.15
75273;BMP280;63869;52.344;16.928;2023-06-10T04:37:46;100914.66;;;21.11
75273;BMP280;63869;52.344;16.928;2023-06-10T04:40:12;100917.78;;;21.04
75273;BMP280;63869;52.344;16.928;2023-06-10T04:42:37;100919.50;;;21.01
75273;BMP280;63869;52.344;16.928;2023-06-10T04:45:03;100911.25;;;21.16
75273;BMP280;63869;52.344;16.928;2023-06-10T04:47:31;100911.59;;;21.24
75273;BMP280;63869;52.344;16.928;2023-06-10T04:50:00;100913.44;;;21.32
75273;BMP280;63869;52.344;16.928;2023-06-10T04:52:25;100926.59;;;21.39
75273;BMP280;63869;52.344;16.928;2023-06-10T04:54:51;100928.19;;;21.46
75273;BMP280;63869;52.344;16.928;2023-06-10T04:57:16;100934.38;;;21.47
75273;BMP280;63869;52.344;16.928;2023-06-10T04:59:42;100938.75;;;21.59
75273;BMP280;63869;52.344;16.928;2023-06-10T05:02:07;100932.84;;;21.66
75273;BMP280;63869;52.344;16.928;2023-06-10T05:04:33;100937.13;;;21.72
75273;BMP280;63869;52.344;16.928;2023-06-10T05:06:58;100947.00;;;21.70
75273;BMP280;63869;52.344;16.928;2023-06-10T05:09:23;100945.50;;;21.69
75273;BMP280;63869;52.344;16.928;2023-06-10T05:11:49;100950.94;;;21.69
75273;BMP280;63869;52.344;16.928;2023-06-10T05:14:14;100949.78;;;21.75
75273;BMP280;63869;52.344;16.928;2023-06-10T05:16:44;100955.53;;;21.83
75273;BMP280;63869;52.344;16.928;2023-06-10T05:19:09;100957.59;;;21.88
75273;BMP280;63869;52.344;16.928;2023-06-10T05:21:35;100966.81;;;21.96
75273;BMP280;63869;52.344;16.928;2023-06-10T05:24:00;100966.13;;;22.01
75273;BMP280;63869;52.344;16.928;2023-06-10T05:26:25;100979.09;;;22.06
75273;BMP280;63869;52.344;16.928;2023-06-10T05:28:51;100967.22;;;22.15
75273;BMP280;63869;52.344;16.928;2023-06-10T05:31:16;100974.72;;;22.20
75273;BMP280;63869;52.344;16.928;2023-06-10T05:33:41;100966.09;;;22.27
75273;BMP280;63869;52.344;16.928;2023-06-10T05:36:07;100971.09;;;22.34
75273;BMP280;63869;52.344;16.928;2023-06-10T05:38:32;100965.97;;;22.42
75273;BMP280;63869;52.344;16.928;2023-06-10T05:40:57;100979.66;;;22.47
75273;BMP280;63869;52.344;16.928;2023-06-10T05:43:24;100973.53;;;22.52
75273;BMP280;63869;52.344;16.928;2023-06-10T05:45:49;100972.03;;;22.57
75273;BMP280;63869;52.344;16.928;2023-06-10T05:48:14;100975.03;;;22.59
75273;BMP280;63869;52.344;16.928;2023-06-10T05:50:40;100978.00;;;22.61
75273;BMP280;63869;52.344;16.928;2023-06-10T05:53:08;100987.25;;;22.69
75273;BMP280;63869;52.344;16.928;2023-06-10T05:55:43;100971.91;;;22.71
75273;BMP280;63869;52.344;16.928;2023-06-10T05:58:09;100983.59;;;22.78
75273;BMP280;63869;52.344;16.928;2023-06-10T06:00:34;100975.91;;;22.82
75273;BMP280;63869;52.344;16.928;2023-06-10T06:03:00;100971.50;;;22.90
75273;BMP280;63869;52.344;16.928;2023-06-10T06:05:25;100978.22;;;22.94
75273;BMP280;63869;52.344;16.928;2023-06-10T06:07:51;100981.69;;;22.95
75273;BMP280;63869;52.344;16.928;2023-06-10T06:10:17;100969.59;;;23.07
75273;BMP280;63869;52.344;16.928;2023-06-10T06:12:43;100974.34;;;23.12
75273;BMP280;63869;52.344;16.928;2023-06-10T06:15:10;100977.59;;;23.22
75273;BMP280;63869;52.344;16.928;2023-06-10T06:17:35;100981.38;;;23.30
75273;BMP280;63869;52.344;16.928;2023-06-10T06:20:02;100989.09;;;23.37
75273;BMP280;63869;52.344;16.928;2023-06-10T06:22:27;100978.19;;;23.42
75273;BMP280;63869;52.344;16.928;2023-06-10T06:24:56;100975.00;;;23.55
75273;BMP280;63869;52.344;16.928;2023-06-10T06:27:21;100971.78;;;23.62
75273;BMP280;63869;52.344;16.928;2023-06-10T06:29:46;100984.22;;;23.63
75273;BMP280;63869;52.344;16.928;2023-06-10T06:32:12;100982.19;;;23.58
75273;BMP280;63869;52.344;16.928;2023-06-10T06:34:37;100978.47;;;23.55
75273;BMP280;63869;52.344;16.928;2023-06-10T06:37:03;100981.72;;;23.65
75273;BMP280;63869;52.344;16.928;2023-06-10T06:39:28;100988.69;;;23.72
75273;BMP280;63869;52.344;16.928;2023-06-10T06:41:54;100976.56;;;23.78
75273;BMP280;63869;52.344;16.928;2023-06-10T06:44:19;100986.25;;;23.85
75273;BMP280;63869;52.344;16.928;2023-06-10T06:46:45;100992.44;;;23.85
75273;BMP280;63869;52.344;16.928;2023-06-10T06:49:11;100992.94;;;23.89
75273;BMP280;63869;52.344;16.928;2023-06-10T06:51:36;100997.44;;;23.92
75273;BMP280;63869;52.344;16.928;2023-06-10T06:54:02;100999.19;;;23.95
75273;BMP280;63869;52.344;16.928;2023-06-10T06:56:27;100998.91;;;24.04
75273;BMP280;63869;52.344;16.928;2023-06-10T06:58:53;100989.47;;;24.05
75273;BMP280;63869;52.344;16.928;2023-06-10T07:01:18;100996.44;;;24.06
75273;BMP280;63869;52.344;16.928;2023-06-10T07:03:44;100997.66;;;24.05
75273;BMP280;63869;52.344;16.928;2023-06-10T07:06:09;101003.91;;;24.12
75273;BMP280;63869;52.344;16.928;2023-06-10T07:08:35;101006.63;;;24.23
75273;BMP280;63869;52.344;16.928;2023-06-10T07:11:00;100997.69;;;24.28
75273;BMP280;63869;52.344;16.928;2023-06-10T07:13:25;101010.09;;;24.34
75273;BMP280;63869;52.344;16.928;2023-06-10T07:15:50;101002.41;;;24.33
75273;BMP280;63869;52.344;16.928;2023-06-10T07:18:16;101005.63;;;24.37
75273;BMP280;63869;52.344;16.928;2023-06-10T07:20:42;101006.13;;;24.35
75273;BMP280;63869;52.344;16.928;2023-06-10T07:23:07;101013.84;;;24.31
75273;BMP280;63869;52.344;16.928;2023-06-10T07:25:33;101014.13;;;24.39
75273;BMP280;63869;52.344;16.928;2023-06-10T07:27:58;101008.63;;;24.44
75273;BMP280;63869;52.344;16.928;2023-06-10T07:30:24;101002.16;;;24.53
75273;BMP280;63869;52.344;16.928;2023-06-10T07:32:49;101012.81;;;24.62
75273;BMP280;63869;52.344;16.928;2023-06-10T07:35:16;101003.63;;;24.71
75273;BMP280;63869;52.344;16.928;2023-06-10T07:37:42;101013.78;;;24.81
75273;BMP280;63869;52.344;16.928;2023-06-10T07:40:08;101008.06;;;24.85
75273;BMP280;63869;52.344;16.928;2023-06-10T07:42:35;101018.25;;;24.90
75273;BMP280;63869;52.344;16.928;2023-06-10T07:45:04;101016.97;;;25.02
75273;BMP280;63869;52.344;16.928;2023-06-10T07:47:30;101017.66;;;25.14
75273;BMP280;63869;52.344;16.928;2023-06-10T07:49:55;101013.16;;;25.22
75273;BMP280;63869;52.344;16.928;2023-06-10T07:52:21;101010.66;;;25.24
75273;BMP280;63869;52.344;16.928;2023-06-10T07:54:46;101006.91;;;25.27
75273;BMP280;63869;52.344;16.928;2023-06-10T07:57:11;101009.13;;;25.34
75273;BMP280;63869;52.344;16.928;2023-06-10T07:59:37;101012.53;;;25.46
75273;BMP280;63869;52.344;16.928;2023-06-10T08:02:03;101014.47;;;25.56
75273;BMP280;63869;52.344;16.928;2023-06-10T08:04:28;101015.19;;;25.62
75273;BMP280;63869;52.344;16.928;2023-06-10T08:07:01;101017.41;;;25.69
75273;BMP280;63869;52.344;16.928;2023-06-10T08:09:27;101010.94;;;25.61
75273;BMP280;63869;52.344;16.928;2023-06-10T08:11:54;101006.72;;;25.60
75273;BMP280;63869;52.344;16.928;2023-06-10T08:14:21;101004.47;;;25.64
75273;BMP280;63869;52.344;16.928;2023-06-10T08:16:46;101006.28;;;25.51
75273;BMP280;63869;52.344;16.928;2023-06-10T08:19:12;101013.03;;;25.44
75273;BMP280;63869;52.344;16.928;2023-06-10T08:21:37;101012.00;;;25.47
75273;BMP280;63869;52.344;16.928;2023-06-10T08:24:08;101014.22;;;25.54
75273;BMP280;63869;52.344;16.928;2023-06-10T08:26:34;101008.19;;;25.61
75273;BMP280;63869;52.344;16.928;2023-06-10T08:28:59;101001.97;;;25.66
75273;BMP280;63869;52.344;16.928;2023-06-10T08:31:25;101005.41;;;25.72
75273;BMP280;63869;52.344;16.928;2023-06-10T08:33:50;101014.31;;;25.78
75273;BMP280;63869;52.344;16.928;2023-06-10T08:36:15;101000.09;;;25.85
75273;BMP280;63869;52.344;16.928;2023-06-10T08:38:41;101002.50;;;25.95
75273;BMP280;63869;52.344;16.928;2023-06-10T08:41:06;101007.16;;;26.05
75273;BMP280;63869;52.344;16.928;2023-06-10T08:43:40;100999.59;;;26.11
75273;BMP280;63869;52.344;16.928;2023-06-10T08:46:09;101002.28;;;26.22
75273;BMP280;63869;52.344;16.928;2023-06-10T08:48:42;101009.34;;;26.37
75273;BMP280;63869;52.344;16.928;2023-06-10T08:51:10;101012.00;;;26.48
75273;BMP280;63869;52.344;16.928;2023-06-10T08:53:42;101004.69;;;26.56
75273;BMP280;63869;52.344;16.928;2023-06-10T08:56:11;101009.09;;;26.64
75273;BMP280;63869;52.344;16.928;2023-06-10T08:58:38;101018.41;;;26.80
75273;BMP280;63869;52.344;16.928;2023-06-10T09:01:07;101008.38;;;26.83
75273;BMP280;63869;52.344;16.928;2023-06-10T09:03:33;101014.63;;;26.83
75273;BMP280;63869;52.344;16.928;2023-06-10T09:06:04;101016.50;;;26.94
75273;BMP280;63869;52.344;16.928;2023-06-10T09:08:30;101009.63;;;27.06
75273;BMP280;63869;52.344;16.928;2023-06-10T09:10:57;101004.41;;;27.21
75273;BMP280;63869;52.344;16.928;2023-06-10T09:13:22;101000.91;;;27.39
75273;BMP280;63869;52.344;16.928;2023-06-10T09:15:48;101004.25;;;27.51
75273;BMP280;63869;52.344;16.928;2023-06-10T09:18:14;101012.19;;;27.54
75273;BMP280;63869;52.344;16.928;2023-06-10T09:20:42;101006.97;;;27.51
75273;BMP280;63869;52.344;16.928;2023-06-10T09:23:08;101015.38;;;27.58
75273;BMP280;63869;52.344;16.928;2023-06-10T09:25:35;101015.94;;;27.70
75273;BMP280;63869;52.344;16.928;2023-06-10T09:28:05;101012.81;;;27.79
75273;BMP280;63869;52.344;16.928;2023-06-10T09:30:37;101008.28;;;27.95
75273;BMP280;63869;52.344;16.928;2023-06-10T09:33:09;101006.41;;;28.03
75273;BMP280;63869;52.344;16.928;2023-06-10T09:35:35;101005.88;;;28.04
75273;BMP280;63869;52.344;16.928;2023-06-10T09:38:01;101008.53;;;28.10
75273;BMP280;63869;52.344;16.928;2023-06-10T09:40:27;101004.94;;;28.15
75273;BMP280;63869;52.344;16.928;2023-06-10T09:42:54;101009.59;;;28.20
75273;BMP280;63869;52.344;16.928;2023-06-10T09:45:21;101014.78;;;28.23
75273;BMP280;63869;52.344;16.928;2023-06-10T09:47:50;101007.47;;;28.26
75273;BMP280;63869;52.344;16.928;2023-06-10T09:50:17;100992.38;;;28.33
75273;BMP280;63869;52.344;16.928;2023-06-10T09:52:42;100994.81;;;28.36
75273;BMP280;63869;52.344;16.928;2023-06-10T09:55:08;100990.44;;;28.41
75273;BMP280;63869;52.344;16.928;2023-06-10T09:57:39;100993.53;;;28.50
75273;BMP280;63869;52.344;16.928;2023-06-10T10:00:08;100997.13;;;28.58
75273;BMP280;63869;52.344;16.928;2023-06-10T10:02:47;100995.75;;;28.65
75273;BMP280;63869;52.344;16.928;2023-06-10T10:05:18;100997.41;;;28.68
75273;BMP280;63869;52.344;16.928;2023-06-10T10:07:44;100995.19;;;28.80
75273;BMP280;63869;52.344;16.928;2023-06-10T10:10:11;100986.28;;;28.73
75273;BMP280;63869;52.344;16.928;2023-06-10T10:12:41;100996.97;;;28.77
75273;BMP280;63869;52.344;16.928;2023-06-10T10:15:11;100992.66;;;28.82
75273;BMP280;63869;52.344;16.928;2023-06-10T10:20:31;100987.34;;;28.84
75273;BMP280;63869;52.344;16.928;2023-06-10T10:22:59;100980.16;;;28.81
75273;BMP280;63869;52.344;16.928;2023-06-10T10:25:28;100994.53;;;28.87
75273;BMP280;63869;52.344;16.928;2023-06-10T10:27:59;101000.59;;;28.85
75273;BMP280;63869;52.344;16.928;2023-06-10T10:30:30;100998.34;;;28.84
75273;BMP280;63869;52.344;16.928;2023-06-10T10:33:04;100993.72;;;28.65
75273;BMP280;63869;52.344;16.928;2023-06-10T10:35:30;100986.13;;;28.45
75273;BMP280;63869;52.344;16.928;2023-06-10T10:37:55;100989.50;;;28.38
75273;BMP280;63869;52.344;16.928;2023-06-10T10:40:22;100980.84;;;28.47
75273;BMP280;63869;52.344;16.928;2023-06-10T10:42:51;100985.16;;;28.56
75273;BMP280;63869;52.344;16.928;2023-06-10T10:45:17;100992.66;;;28.68
75273;BMP280;63869;52.344;16.928;2023-06-10T10:47:45;100981.97;;;28.78
75273;BMP280;63869;52.344;16.928;2023-06-10T10:50:15;100981.19;;;28.91
75273;BMP280;63869;52.344;16.928;2023-06-10T10:52:54;100977.09;;;29.05
75273;BMP280;63869;52.344;16.928;2023-06-10T10:55:20;100980.16;;;29.14
75273;BMP280;63869;52.344;16.928;2023-06-10T10:57:54;100974.31;;;29.18
75273;BMP280;63869;52.344;16.928;2023-06-10T11:00:43;100978.09;;;29.28
75273;BMP280;63869;52.344;16.928;2023-06-10T11:03:13;100972.09;;;29.37
75273;BMP280;63869;52.344;16.928;2023-06-10T11:05:41;100973.78;;;29.40
75273;BMP280;63869;52.344;16.928;2023-06-10T11:08:10;100978.56;;;29.40
75273;BMP280;63869;52.344;16.928;2023-06-10T11:10:37;100981.63;;;29.36
75273;BMP280;63869;52.344;16.928;2023-06-10T11:13:13;100981.63;;;29.36
75273;BMP280;63869;52.344;16.928;2023-06-10T11:15:43;100980.38;;;29.37
75273;BMP280;63869;52.344;16.928;2023-06-10T11:18:29;100972.19;;;29.45
75273;BMP280;63869;52.344;16.928;2023-06-10T11:20:58;100964.66;;;29.45
75273;BMP280;63869;52.344;16.928;2023-06-10T11:31:26;100968.00;;;29.72
75273;BMP280;63869;52.344;16.928;2023-06-10T11:36:20;100980.97;;;30.13
75273;BMP280;63869;52.344;16.928;2023-06-10T11:38:45;100982.88;;;30.26
75273;BMP280;63869;52.344;16.928;2023-06-10T11:41:11;100976.44;;;30.31
75273;BMP280;63869;52.344;16.928;2023-06-10T11:43:42;100971.50;;;30.37
75273;BMP280;63869;52.344;16.928;2023-06-10T11:46:07;100973.00;;;30.45
75273;BMP280;63869;52.344;16.928;2023-06-10T11:48:33;100959.09;;;30.58
75273;BMP280;63869;52.344;16.928;2023-06-10T11:50:59;100970.84;;;30.59
75273;BMP280;63869;52.344;16.928;2023-06-10T11:53:24;100960.50;;;30.44
75273;BMP280;63869;52.344;16.928;2023-06-10T11:55:50;100959.28;;;30.53
75273;BMP280;63869;52.344;16.928;2023-06-10T11:58:22;100966.47;;;30.63
75273;BMP280;63869;52.344;16.928;2023-06-10T12:00:52;100972.22;;;30.81
75273;BMP280;63869;52.344;16.928;2023-06-10T12:03:19;100971.56;;;31.03
75273;BMP280;63869;52.344;16.928;2023-06-10T12:06:14;100968.06;;;31.33
75273;BMP280;63869;52.344;16.928;2023-06-10T12:08:43;100961.97;;;31.34
75273;BMP280;63869;52.344;16.928;2023-06-10T12:11:08;100968.44;;;31.44
75273;BMP280;63869;52.344;16.928;2023-06-10T12:13:34;100969.34;;;31.62
75273;BMP280;63869;52.344;16.928;2023-06-10T12:16:07;100963.25;;;31.78
75273;BMP280;63869;52.344;16.928;2023-06-10T12:18:32;100954.53;;;31.97
75273;BMP280;63869;52.344;16.928;2023-06-10T12:20:58;100967.06;;;31.91
75273;BMP280;63869;52.344;16.928;2023-06-10T12:23:24;100958.47;;;31.56
75273;BMP280;63869;52.344;16.928;2023-06-10T12:25:51;100966.59;;;31.24
75273;BMP280;63869;52.344;16.928;2023-06-10T12:28:21;100957.38;;;31.14
75273;BMP280;63869;52.344;16.928;2023-06-10T12:30:46;100949.63;;;31.20
75273;BMP280;63869;52.344;16.928;2023-06-10T12:33:21;100946.13;;;31.35
75273;BMP280;63869;52.344;16.928;2023-06-10T12:35:51;100952.72;;;31.69
75273;BMP280;63869;52.344;16.928;2023-06-10T12:38:35;100958.25;;;31.85
75273;BMP280;63869;52.344;16.928;2023-06-10T12:41:02;100960.63;;;31.96
75273;BMP280;63869;52.344;16.928;2023-06-10T12:43:47;100946.78;;;31.96
75273;BMP280;63869;52.344;16.928;2023-06-10T12:46:13;100954.25;;;32.18
75273;BMP280;63869;52.344;16.928;2023-06-10T12:48:49;100957.97;;;32.53
75273;BMP280;63869;52.344;16.928;2023-06-10T12:51:16;100934.88;;;32.82
75273;BMP280;63869;52.344;16.928;2023-06-10T12:53:41;100932.75;;;33.15
75273;BMP280;63869;52.344;16.928;2023-06-10T12:56:07;100932.47;;;33.46
75273;BMP280;63869;52.344;16.928;2023-06-10T12:58:35;100941.22;;;33.76
75273;BMP280;63869;52.344;16.928;2023-06-10T13:01:00;100938.56;;;34.13
75273;BMP280;63869;52.344;16.928;2023-06-10T13:03:26;100939.78;;;34.19
75273;BMP280;63869;52.344;16.928;2023-06-10T13:05:51;100935.09;;;33.95
75273;BMP280;63869;52.344;16.928;2023-06-10T13:08:17;100942.38;;;33.73
75273;BMP280;63869;52.344;16.928;2023-06-10T13:10:42;100929.81;;;33.72
75273;BMP280;63869;52.344;16.928;2023-06-10T13:13:07;100924.16;;;33.97
75273;BMP280;63869;52.344;16.928;2023-06-10T13:15:35;100934.47;;;34.40
75273;BMP280;63869;52.344;16.928;2023-06-10T13:18:04;100933.38;;;34.53
75273;BMP280;63869;52.344;16.928;2023-06-10T13:20:29;100940.91;;;34.33
75273;BMP280;63869;52.344;16.928;2023-06-10T13:22:55;100940.25;;;33.99
75273;BMP280;63869;52.344;16.928;2023-06-10T13:25:20;100931.56;;;33.94
75273;BMP280;63869;52.344;16.928;2023-06-10T13:27:45;100936.03;;;34.07
75273;BMP280;63869;52.344;16.928;2023-06-10T13:30:11;100935.94;;;34.41
75273;BMP280;63869;52.344;16.928;2023-06-10T13:32:37;100936.47;;;35.03
75273;BMP280;63869;52.344;16.928;2023-06-10T13:35:02;100935.16;;;35.33
75273;BMP280;63869;52.344;16.928;2023-06-10T13:37:28;100934.31;;;35.69
75273;BMP280;63869;52.344;16.928;2023-06-10T13:39:58;100926.53;;;36.27
75273;BMP280;63869;52.344;16.928;2023-06-10T13:42:24;100928.34;;;36.74
75273;BMP280;63869;52.344;16.928;2023-06-10T13:44:51;100932.78;;;36.77
75273;BMP280;63869;52.344;16.928;2023-06-10T13:47:16;100928.63;;;37.20
75273;BMP280;63869;52.344;16.928;2023-06-10T13:49:42;100922.94;;;37.51
75273;BMP280;63869;52.344;16.928;2023-06-10T13:52:08;100922.91;;;37.95
75273;BMP280;63869;52.344;16.928;2023-06-10T13:54:33;100916.69;;;38.32
75273;BMP280;63869;52.344;16.928;2023-06-10T13:57:00;100912.75;;;38.72